createdAt,value
2023-01-31T00:01:38.172Z,47.67
2023-01-31T00:04:09.233Z,44.67
2023-01-31T00:06:40.263Z,43.15
2023-01-31T00:09:09.222Z,47.75
2023-01-31T00:11:36.367Z,61.40
2023-01-31T00:14:05.012Z,75.43
2023-01-31T00:16:32.272Z,67.30
2023-01-31T00:18:59.262Z,73.43
2023-01-31T00:21:28.548Z,66.97
2023-01-31T00:23:56.724Z,65.40
2023-01-31T00:26:32.491Z,55.55
2023-01-31T00:29:02.113Z,59.63
2023-01-31T00:31:31.066Z,62.85
2023-01-31T00:33:58.715Z,53.03
2023-01-31T00:36:28.371Z,60.92
2023-01-31T00:38:57.540Z,55.80
2023-01-31T00:41:26.119Z,47.97
2023-01-31T00:43:53.019Z,52.63
2023-01-31T00:46:23.936Z,48.92
2023-01-31T00:48:51.649Z,49.25
2023-01-31T00:51:20.244Z,45.83
2023-01-31T00:53:47.975Z,52.55
2023-01-31T00:56:20.699Z,47.38
2023-01-31T00:58:47.659Z,50.33
2023-01-31T01:01:17.370Z,54.03
2023-01-31T01:03:45.838Z,52.85
2023-01-31T01:06:14.363Z,47.30
2023-01-31T01:08:43.336Z,41.63
2023-01-31T01:11:17.049Z,40.13
2023-01-31T01:13:44.774Z,34.30
2023-01-31T01:16:21.362Z,31.92
2023-01-31T01:18:49.349Z,31.55
2023-01-31T01:21:22.430Z,31.05
2023-01-31T01:23:49.818Z,23.42
2023-01-31T01:26:19.745Z,25.67
2023-01-31T01:28:47.771Z,26.90
2023-01-31T01:31:16.775Z,20.95
2023-01-31T01:33:50.947Z,24.33
2023-01-31T01:36:22.272Z,25.83
2023-01-31T01:38:49.417Z,21.02
2023-01-31T01:41:16.912Z,24.77
2023-01-31T01:43:54.146Z,25.42
2023-01-31T01:46:34.181Z,22.38
2023-01-31T01:49:06.597Z,26.30
2023-01-31T01:51:34.676Z,27.17
2023-01-31T01:54:06.279Z,26.73
2023-01-31T01:56:40.619Z,26.40
2023-01-31T01:59:20.505Z,26.52
2023-01-31T02:01:48.912Z,21.70
2023-01-31T02:04:20.700Z,22.90
2023-01-31T02:06:47.901Z,26.35
2023-01-31T02:09:42.370Z,23.58
2023-01-31T02:12:10.540Z,24.15
2023-01-31T02:14:40.442Z,22.88
2023-01-31T02:17:15.900Z,25.13
2023-01-31T02:20:16.507Z,25.88
2023-01-31T02:22:52.805Z,26.73
2023-01-31T02:25:32.499Z,26.95
2023-01-31T02:28:10.450Z,27.08
2023-01-31T02:30:46.539Z,25.73
2023-01-31T02:33:13.411Z,23.58
2023-01-31T02:35:49.218Z,26.50
2023-01-31T02:38:32.028Z,28.77
2023-01-31T02:41:07.312Z,28.15
2023-01-31T02:44:00.151Z,29.65
2023-01-31T02:46:56.734Z,25.10
2023-01-31T02:49:48.254Z,28.73
2023-01-31T02:52:27.187Z,23.83
2023-01-31T02:55:26.886Z,24.00
2023-01-31T02:57:57.560Z,25.60
2023-01-31T03:00:26.116Z,24.27
2023-01-31T03:02:53.791Z,22.25
2023-01-31T03:05:21.696Z,26.63
2023-01-31T03:07:57.613Z,31.83
2023-01-31T03:10:36.711Z,26.92
2023-01-31T03:13:10.756Z,26.08
2023-01-31T03:16:18.518Z,28.40
2023-01-31T03:18:53.625Z,27.77
2023-01-31T03:21:39.930Z,28.63
2023-01-31T03:24:07.701Z,25.60
2023-01-31T03:26:35.620Z,25.25
2023-01-31T03:29:05.860Z,30.27
2023-01-31T03:31:41.252Z,28.10
2023-01-31T03:34:11.611Z,28.90
2023-01-31T03:37:01.573Z,30.75
2023-01-31T03:39:52.369Z,25.52
2023-01-31T03:42:34.062Z,26.35
2023-01-31T03:45:05.920Z,26.58
2023-01-31T03:47:41.078Z,30.92
2023-01-31T03:50:31.247Z,26.52
2023-01-31T03:53:16.062Z,32.13
2023-01-31T03:55:49.081Z,30.50
2023-01-31T03:58:19.856Z,32.50
2023-01-31T04:00:49.161Z,32.40
2023-01-31T04:03:32.828Z,34.55
2023-01-31T04:05:59.987Z,28.73
2023-01-31T04:08:26.921Z,32.13
2023-01-31T04:11:04.224Z,26.90
2023-01-31T04:15:57.978Z,29.95
2023-01-31T04:18:24.950Z,33.13
2023-01-31T04:20:51.773Z,28.75
2023-01-31T04:23:19.145Z,27.65
2023-01-31T04:25:46.712Z,29.73
2023-01-31T04:28:13.645Z,30.92
2023-01-31T04:30:40.546Z,33.05
2023-01-31T04:33:07.367Z,34.15
2023-01-31T04:35:35.021Z,32.13
2023-01-31T04:38:01.985Z,38.45
2023-01-31T04:40:28.805Z,31.88
2023-01-31T04:42:55.825Z,28.80
2023-01-31T04:45:22.762Z,29.20
2023-01-31T04:47:49.652Z,28.88
2023-01-31T04:50:16.783Z,30.75
2023-01-31T04:52:43.700Z,37.33
2023-01-31T04:55:10.456Z,39.30
2023-01-31T04:57:37.248Z,40.45
2023-01-31T05:00:05.051Z,31.92
2023-01-31T05:02:32.224Z,33.47
2023-01-31T05:04:59.201Z,32.85
2023-01-31T05:07:26.183Z,34.17
2023-01-31T05:09:53.028Z,34.85
2023-01-31T05:12:19.829Z,37.92
2023-01-31T05:14:46.712Z,27.33
2023-01-31T05:17:13.830Z,28.23
2023-01-31T05:19:42.864Z,27.48
2023-01-31T05:22:09.917Z,27.15
2023-01-31T05:24:37.201Z,35.30
2023-01-31T05:27:04.680Z,28.25
2023-01-31T05:29:32.709Z,38.28
2023-01-31T05:32:01.446Z,40.63
2023-01-31T05:34:31.223Z,42.72
2023-01-31T05:36:58.251Z,35.67
2023-01-31T05:39:25.572Z,25.88
2023-01-31T05:41:53.062Z,38.05
2023-01-31T05:44:20.534Z,32.15
2023-01-31T05:46:47.347Z,35.60
2023-01-31T05:49:14.592Z,36.47
2023-01-31T05:51:41.924Z,40.78
2023-01-31T05:54:11.176Z,79.43
2023-01-31T05:56:39.287Z,67.88
2023-01-31T05:59:06.404Z,59.58
2023-01-31T06:01:33.539Z,55.67
2023-01-31T06:04:00.771Z,42.92
2023-01-31T06:06:27.740Z,43.63
2023-01-31T06:08:54.688Z,31.65
2023-01-31T06:11:21.767Z,33.95
2023-01-31T06:13:49.597Z,39.63
2023-01-31T06:16:16.540Z,33.80
2023-01-31T06:18:43.659Z,28.95
2023-01-31T06:21:12.190Z,32.33
2023-01-31T06:23:39.323Z,27.15
2023-01-31T06:26:06.272Z,31.55
2023-01-31T06:28:33.107Z,35.15
2023-01-31T06:31:07.073Z,32.63
2023-01-31T06:33:44.773Z,41.17
2023-01-31T06:36:16.667Z,38.20
2023-01-31T06:38:45.422Z,37.03
2023-01-31T06:41:13.037Z,27.92
2023-01-31T06:43:39.902Z,29.05
2023-01-31T06:46:06.704Z,24.27
2023-01-31T06:48:33.630Z,30.85
2023-01-31T06:51:00.478Z,28.02
2023-01-31T06:53:27.428Z,27.88
2023-01-31T06:55:54.342Z,41.35
2023-01-31T06:58:21.237Z,26.48
2023-01-31T07:00:48.127Z,30.10
2023-01-31T07:03:15.194Z,34.10
2023-01-31T07:05:42.780Z,36.30
2023-01-31T07:08:09.666Z,35.67
2023-01-31T07:10:36.574Z,37.22
2023-01-31T07:13:03.607Z,38.17
2023-01-31T07:15:30.496Z,34.75
2023-01-31T07:17:59.428Z,37.65
2023-01-31T07:20:26.908Z,34.47
2023-01-31T07:22:58.123Z,44.35
2023-01-31T07:27:52.792Z,34.10
2023-01-31T07:30:19.927Z,39.40
2023-01-31T07:32:47.011Z,37.42
2023-01-31T07:35:13.963Z,35.65
2023-01-31T07:37:43.445Z,37.30
2023-01-31T07:40:12.007Z,32.40
2023-01-31T07:42:39.608Z,36.60
2023-01-31T07:45:22.510Z,35.00
2023-01-31T07:47:59.057Z,33.67
2023-01-31T07:50:29.824Z,37.25
2023-01-31T07:52:58.811Z,36.20
2023-01-31T07:55:27.040Z,36.20
2023-01-31T07:57:53.886Z,39.50
2023-01-31T08:00:39.553Z,40.20
2023-01-31T08:03:24.894Z,36.17
2023-01-31T08:05:51.790Z,37.33
2023-01-31T08:08:18.760Z,37.83
2023-01-31T08:10:47.381Z,43.50
2023-01-31T08:13:14.286Z,38.10
2023-01-31T08:15:41.144Z,32.67
2023-01-31T08:18:08.077Z,33.33
2023-01-31T08:20:37.746Z,33.30
2023-01-31T08:23:04.739Z,38.38
2023-01-31T08:25:32.182Z,43.80
2023-01-31T08:28:00.468Z,38.53
2023-01-31T08:30:28.530Z,39.95
2023-01-31T08:32:56.283Z,45.63
2023-01-31T08:35:23.215Z,41.17
2023-01-31T08:37:50.020Z,37.25
2023-01-31T08:40:17.089Z,34.45
2023-01-31T08:42:44.163Z,39.13
2023-01-31T08:45:11.111Z,50.75
2023-01-31T08:47:39.072Z,54.97
2023-01-31T08:50:15.868Z,30.90
2023-01-31T08:53:00.408Z,36.00
2023-01-31T08:55:29.181Z,37.45
2023-01-31T08:58:00.021Z,38.67
2023-01-31T09:02:59.567Z,43.75
2023-01-31T09:05:28.865Z,43.58
2023-01-31T09:07:55.855Z,35.60
2023-01-31T09:10:23.352Z,38.78
2023-01-31T09:12:50.458Z,42.17
2023-01-31T09:15:17.639Z,47.53
2023-01-31T09:17:44.467Z,36.15
2023-01-31T09:20:11.722Z,40.88
2023-01-31T09:22:38.751Z,43.47
2023-01-31T09:25:06.282Z,34.13
2023-01-31T09:27:33.388Z,34.17
2023-01-31T09:30:00.287Z,34.83
2023-01-31T09:32:27.320Z,30.23
2023-01-31T09:34:54.310Z,36.50
2023-01-31T09:37:21.281Z,35.15
2023-01-31T09:39:48.274Z,32.05
2023-01-31T09:42:24.636Z,32.33
2023-01-31T09:45:05.633Z,31.73
2023-01-31T09:47:44.427Z,34.70
2023-01-31T09:50:17.443Z,31.90
2023-01-31T09:52:44.453Z,32.25
2023-01-31T09:55:18.375Z,35.13
2023-01-31T09:58:09.210Z,29.13
2023-01-31T10:01:11.941Z,35.30
2023-01-31T10:04:07.051Z,30.23
2023-01-31T10:06:49.199Z,29.25
2023-01-31T10:09:15.998Z,39.20
2023-01-31T10:11:58.307Z,35.70
2023-01-31T10:14:34.263Z,33.33
2023-01-31T10:17:11.660Z,30.83
2023-01-31T10:20:07.100Z,30.77
2023-01-31T10:22:46.114Z,27.98
2023-01-31T10:25:35.368Z,33.00
2023-01-31T10:28:15.586Z,33.08
2023-01-31T10:31:02.636Z,34.15
2023-01-31T10:33:50.771Z,31.85
2023-01-31T10:36:43.108Z,29.83
2023-01-31T10:39:25.242Z,26.85
2023-01-31T10:42:03.864Z,30.10
2023-01-31T10:44:54.611Z,26.65
2023-01-31T10:47:33.103Z,34.92
2023-01-31T10:50:00.303Z,26.40
2023-01-31T10:52:50.663Z,31.60
2023-01-31T10:55:42.351Z,32.67
2023-01-31T10:58:15.139Z,33.67
2023-01-31T11:00:42.603Z,30.45
2023-01-31T11:03:12.907Z,34.75
2023-01-31T11:06:00.279Z,31.53
2023-01-31T11:08:38.295Z,33.45
2023-01-31T11:11:20.079Z,29.52
2023-01-31T11:14:06.346Z,28.67
2023-01-31T11:16:40.788Z,39.25
2023-01-31T11:19:27.549Z,29.23
2023-01-31T11:21:55.085Z,28.33
2023-01-31T11:24:24.572Z,32.67
2023-01-31T11:27:00.805Z,33.30
2023-01-31T11:29:30.665Z,27.52
2023-01-31T11:32:00.215Z,28.85
2023-01-31T11:34:30.886Z,24.83
2023-01-31T11:37:13.966Z,29.02
2023-01-31T11:39:41.211Z,29.20
2023-01-31T11:42:12.257Z,28.63
2023-01-31T11:45:00.950Z,30.60
2023-01-31T11:47:40.120Z,24.27
2023-01-31T11:50:08.296Z,25.05
2023-01-31T11:52:35.761Z,23.27
2023-01-31T11:55:08.607Z,33.67
2023-01-31T11:57:38.393Z,33.65
2023-01-31T12:00:31.172Z,27.10
2023-01-31T12:03:05.652Z,23.67
2023-01-31T12:05:41.220Z,24.08
2023-01-31T12:08:38.919Z,22.42
2023-01-31T12:11:07.331Z,32.10
2023-01-31T12:14:00.578Z,27.30
2023-01-31T12:16:30.490Z,29.65
2023-01-31T12:19:12.167Z,31.45
2023-01-31T12:22:12.478Z,29.42
2023-01-31T12:24:56.740Z,31.08
2023-01-31T12:28:01.883Z,29.70
2023-01-31T12:30:37.686Z,41.88
2023-01-31T12:33:35.534Z,36.50
2023-01-31T12:36:11.380Z,36.00
2023-01-31T12:38:44.340Z,36.10
2023-01-31T12:41:36.638Z,46.78
2023-01-31T12:44:25.135Z,31.83
2023-01-31T12:47:16.898Z,38.30
2023-01-31T12:49:49.917Z,35.65
2023-01-31T12:52:19.874Z,39.15
2023-01-31T12:55:11.386Z,36.53
2023-01-31T13:00:53.557Z,32.13
2023-01-31T13:03:55.526Z,29.40
2023-01-31T13:06:32.834Z,29.95
2023-01-31T13:09:25.321Z,25.30
2023-01-31T13:11:55.126Z,22.75
2023-01-31T13:14:26.766Z,21.50
2023-01-31T13:17:00.421Z,27.50
2023-01-31T13:19:30.265Z,25.15
2023-01-31T13:22:06.222Z,24.60
2023-01-31T13:24:42.790Z,29.25
2023-01-31T13:27:12.220Z,24.00
2023-01-31T13:29:44.278Z,19.60
2023-01-31T13:32:14.725Z,20.48
2023-01-31T13:34:52.078Z,14.77
2023-01-31T13:37:21.395Z,31.77
2023-01-31T13:40:01.210Z,40.33
2023-01-31T13:42:28.453Z,28.85
2023-01-31T13:45:00.144Z,31.13
2023-01-31T13:47:43.911Z,32.20
2023-01-31T13:50:31.072Z,23.90
2023-01-31T13:53:02.125Z,28.95
2023-01-31T13:55:46.149Z,23.98
2023-01-31T13:58:29.057Z,20.67
2023-01-31T14:01:22.820Z,28.15
2023-01-31T14:04:18.041Z,30.67
2023-01-31T14:06:56.852Z,32.08
2023-01-31T14:09:29.547Z,181.93
2023-01-31T14:11:58.926Z,187.02
2023-01-31T14:14:29.673Z,361.42
2023-01-31T14:16:56.914Z,90.60
2023-01-31T14:19:23.711Z,27.90
2023-01-31T14:22:03.876Z,19.92
2023-01-31T14:24:56.727Z,20.15
2023-01-31T14:27:34.918Z,21.02
2023-01-31T14:30:07.832Z,22.38
2023-01-31T14:32:44.876Z,19.55
2023-01-31T14:35:19.983Z,23.60
2023-01-31T14:38:05.653Z,21.80
2023-01-31T14:40:35.391Z,22.50
2023-01-31T14:43:17.499Z,58.38
2023-01-31T14:45:56.356Z,55.67
2023-01-31T14:49:00.649Z,78.30
2023-01-31T14:52:05.823Z,45.60
2023-01-31T14:55:09.781Z,45.95
2023-01-31T14:57:45.792Z,70.32
2023-01-31T15:00:12.539Z,46.63
2023-01-31T15:02:54.534Z,40.75
2023-01-31T15:05:36.573Z,47.70
2023-01-31T15:08:26.587Z,141.85
2023-01-31T15:11:17.439Z,72.13
2023-01-31T15:13:51.692Z,61.53
2023-01-31T15:16:31.167Z,68.90
2023-01-31T15:19:12.514Z,44.72
2023-01-31T15:21:55.695Z,48.35
2023-01-31T15:24:38.999Z,48.30
2023-01-31T15:27:28.760Z,39.53
2023-01-31T15:29:59.011Z,36.08
2023-01-31T15:32:40.949Z,42.20
2023-01-31T15:35:19.237Z,47.92
2023-01-31T15:37:48.020Z,50.13
2023-01-31T15:40:24.064Z,48.15
2023-01-31T15:42:51.679Z,91.22
2023-01-31T15:45:30.366Z,92.35
2023-01-31T15:48:00.143Z,87.82
2023-01-31T15:50:29.308Z,107.60
2023-01-31T15:52:57.212Z,94.78
2023-01-31T15:55:24.389Z,88.13
2023-01-31T15:58:00.267Z,83.43
2023-01-31T16:00:33.097Z,79.25
2023-01-31T16:03:01.121Z,83.32
2023-01-31T16:05:39.434Z,79.43
2023-01-31T16:08:38.871Z,91.10
2023-01-31T16:11:10.290Z,111.97
2023-01-31T16:13:39.903Z,97.25
2023-01-31T16:16:14.192Z,88.43
2023-01-31T16:18:45.273Z,118.20
2023-01-31T16:21:42.731Z,121.18
2023-01-31T16:24:17.418Z,120.45
2023-01-31T16:27:09.227Z,133.45
2023-01-31T16:30:00.412Z,138.43
2023-01-31T16:32:40.323Z,153.05
2023-01-31T16:35:19.700Z,156.07
2023-01-31T16:37:47.321Z,170.95
2023-01-31T16:40:17.297Z,176.20
2023-01-31T16:42:44.862Z,185.90
2023-01-31T16:45:34.848Z,197.15
2023-01-31T16:48:29.296Z,193.68
2023-01-31T16:51:35.652Z,185.45
2023-01-31T16:54:28.754Z,175.32
2023-01-31T16:57:01.961Z,172.73
2023-01-31T16:59:35.040Z,171.30
2023-01-31T17:02:15.758Z,159.18
2023-01-31T17:04:45.672Z,163.68
2023-01-31T17:07:35.142Z,153.13
2023-01-31T17:10:09.511Z,134.10
2023-01-31T17:12:40.347Z,129.70
2023-01-31T17:15:19.970Z,199.73
2023-01-31T17:17:48.099Z,248.05
2023-01-31T17:20:20.749Z,342.92
2023-01-31T17:22:56.868Z,252.50
2023-01-31T17:25:32.924Z,174.55
2023-01-31T17:27:59.832Z,262.73
2023-01-31T17:30:31.427Z,234.55
2023-01-31T17:32:59.566Z,176.23
2023-01-31T17:35:37.729Z,105.00
2023-01-31T17:38:05.345Z,113.47
2023-01-31T17:40:32.777Z,95.57
2023-01-31T17:43:04.662Z,71.07
2023-01-31T17:45:33.213Z,109.28
2023-01-31T17:48:03.894Z,134.20
2023-01-31T17:50:31.677Z,136.82
2023-01-31T17:52:58.895Z,136.40
2023-01-31T17:55:25.851Z,130.35
2023-01-31T17:57:52.924Z,133.27
2023-01-31T18:00:21.148Z,132.00
2023-01-31T18:02:48.076Z,133.05
2023-01-31T18:05:20.473Z,130.18
2023-01-31T18:07:51.619Z,112.60
2023-01-31T18:10:18.583Z,140.95
2023-01-31T18:12:45.673Z,142.57
2023-01-31T18:15:12.779Z,137.98
2023-01-31T18:17:39.769Z,135.50
2023-01-31T18:20:07.361Z,125.30
2023-01-31T18:22:34.266Z,117.45
2023-01-31T18:25:01.135Z,108.10
2023-01-31T18:27:28.134Z,104.38
2023-01-31T18:29:55.804Z,115.60
2023-01-31T18:32:22.718Z,117.97
2023-01-31T18:34:49.579Z,118.82
2023-01-31T18:37:20.371Z,125.80
2023-01-31T18:39:49.192Z,127.32
2023-01-31T18:42:17.152Z,104.47
2023-01-31T18:44:45.095Z,132.63
2023-01-31T18:47:13.201Z,178.65
2023-01-31T18:49:40.240Z,153.55
2023-01-31T18:52:07.839Z,183.57
2023-01-31T18:54:37.600Z,172.23
2023-01-31T18:57:05.257Z,167.45
2023-01-31T18:59:34.783Z,233.23
2023-01-31T19:02:01.832Z,253.38
2023-01-31T19:04:28.845Z,230.70
2023-01-31T19:06:55.758Z,210.85
2023-01-31T19:09:23.069Z,228.77
2023-01-31T19:11:50.033Z,214.13
2023-01-31T19:14:16.931Z,204.90
2023-01-31T19:16:45.060Z,203.43
2023-01-31T19:19:12.603Z,210.13
2023-01-31T19:21:39.953Z,229.88
2023-01-31T19:24:13.368Z,234.10
2023-01-31T19:26:42.669Z,219.07
2023-01-31T19:29:13.606Z,225.82
2023-01-31T19:31:40.563Z,221.88
2023-01-31T19:34:08.116Z,233.05
2023-01-31T19:36:40.543Z,264.92
2023-01-31T19:39:10.936Z,273.60
2023-01-31T19:41:38.744Z,220.82
2023-01-31T19:44:06.395Z,186.57
2023-01-31T19:46:35.891Z,221.00
2023-01-31T19:49:03.063Z,237.70
2023-01-31T19:51:30.050Z,207.35
2023-01-31T19:53:59.203Z,207.70
2023-01-31T19:56:27.191Z,211.52
2023-01-31T19:58:54.294Z,179.32
2023-01-31T20:01:21.396Z,127.10
2023-01-31T20:03:48.306Z,67.78
2023-01-31T20:06:18.476Z,59.30
2023-01-31T20:08:52.695Z,56.33
2023-01-31T20:11:20.133Z,56.53
2023-01-31T20:13:49.917Z,35.55
2023-01-31T20:16:17.665Z,51.20
2023-01-31T20:18:44.906Z,50.65
2023-01-31T20:21:16.758Z,36.17
2023-01-31T20:23:44.089Z,32.17
2023-01-31T20:26:16.172Z,43.55
2023-01-31T20:28:44.454Z,31.73
2023-01-31T20:31:13.367Z,36.72
2023-01-31T20:33:40.423Z,33.13
2023-01-31T20:36:07.794Z,33.90
2023-01-31T20:38:34.832Z,25.92
2023-01-31T20:41:01.696Z,47.60
2023-01-31T20:43:28.572Z,63.58
2023-01-31T20:46:03.302Z,39.35
2023-01-31T20:48:30.251Z,25.98
2023-01-31T20:50:58.216Z,27.75
2023-01-31T20:53:28.236Z,25.27
2023-01-31T20:56:06.409Z,17.45
2023-01-31T20:58:36.038Z,22.80
2023-01-31T21:01:06.069Z,25.15
2023-01-31T21:03:34.292Z,48.47
2023-01-31T21:06:07.440Z,60.38
2023-01-31T21:08:37.537Z,68.60
2023-01-31T21:11:07.996Z,56.72
2023-01-31T21:13:35.877Z,40.88
2023-01-31T21:16:05.452Z,38.08
2023-01-31T21:18:37.063Z,38.83
2023-01-31T21:21:09.578Z,42.33
2023-01-31T21:23:38.195Z,45.80
2023-01-31T21:26:07.686Z,46.13
2023-01-31T21:28:35.215Z,51.42
2023-01-31T21:31:07.912Z,43.97
2023-01-31T21:33:34.916Z,68.25
2023-01-31T21:36:09.861Z,36.95
2023-01-31T21:38:37.312Z,31.05
2023-01-31T21:41:23.323Z,20.98
2023-01-31T21:43:50.194Z,27.88
2023-01-31T21:46:17.343Z,19.27
2023-01-31T21:48:44.292Z,18.10
2023-01-31T21:51:14.638Z,29.75
2023-01-31T21:53:42.249Z,20.13
2023-01-31T21:56:14.756Z,22.83
2023-01-31T21:58:42.748Z,25.75
2023-01-31T22:01:18.399Z,25.17
2023-01-31T22:03:50.496Z,27.65
2023-01-31T22:06:21.193Z,24.48
2023-01-31T22:08:54.761Z,25.77
2023-01-31T22:11:22.198Z,26.77
2023-01-31T22:13:52.686Z,16.88
2023-01-31T22:16:22.297Z,14.30
2023-01-31T22:19:08.261Z,13.07
2023-01-31T22:21:37.385Z,17.38
2023-01-31T22:24:06.646Z,15.80
2023-01-31T22:26:37.153Z,13.13
2023-01-31T22:29:07.495Z,17.98
2023-01-31T22:31:35.032Z,23.20
2023-01-31T22:34:03.694Z,30.58
2023-01-31T22:36:30.869Z,34.50
2023-01-31T22:38:57.787Z,29.77
2023-01-31T22:41:24.929Z,23.80
2023-01-31T22:43:52.825Z,23.23
2023-01-31T22:46:23.424Z,18.15
2023-01-31T22:48:51.239Z,22.98
2023-01-31T22:51:27.209Z,14.73
2023-01-31T22:53:55.986Z,15.77
2023-01-31T22:56:27.084Z,11.93
2023-01-31T22:59:03.397Z,9.45
2023-01-31T23:01:35.379Z,13.05
2023-01-31T23:04:05.010Z,17.25
2023-01-31T23:06:32.313Z,17.20
2023-01-31T23:08:59.185Z,16.15
2023-01-31T23:11:26.691Z,17.52
2023-01-31T23:13:53.960Z,14.10
2023-01-31T23:16:43.121Z,13.52
2023-01-31T23:19:10.878Z,12.90
2023-01-31T23:21:40.276Z,13.48
2023-01-31T23:24:08.229Z,13.27
2023-01-31T23:26:35.348Z,13.35
2023-01-31T23:29:02.274Z,8.50
2023-01-31T23:31:29.483Z,9.25
2023-01-31T23:33:56.414Z,9.52
2023-01-31T23:36:23.231Z,9.63
2023-01-31T23:38:50.036Z,12.98
2023-01-31T23:41:16.874Z,12.52
2023-01-31T23:43:43.800Z,9.60
2023-01-31T23:46:10.695Z,13.48
2023-01-31T23:48:39.549Z,9.35
2023-01-31T23:51:06.459Z,9.90
2023-01-31T23:53:33.216Z,9.05
2023-01-31T23:56:00.037Z,8.63
2023-01-31T23:58:27.132Z,12.82
